sensor_id;sensor_type;location;lat;lon;timestamp;temperature;humidity
11569;DHT22;5840;46.894;15.542;2023-05-10T00:00:32;8.90;99.90
11569;DHT22;5840;46.894;15.542;2023-05-10T00:02:59;8.90;99.90
11569;DHT22;5840;46.894;15.542;2023-05-10T00:05:26;8.90;99.90
11569;DHT22;5840;46.894;15.542;2023-05-10T00:07:53;8.80;99.90
11569;DHT22;5840;46.894;15.542;2023-05-10T00:10:20;8.70;99.90
11569;DHT22;5840;46.894;15.542;2023-05-10T00:12:46;8.70;99.90
11569;DHT22;5840;46.894;15.542;2023-05-10T00:15:15;8.70;99.90
11569;DHT22;5840;46.894;15.542;2023-05-10T00:17:41;8.70;99.90
11569;DHT22;5840;46.894;15.542;2023-05-10T00:20:09;8.70;99.90
11569;DHT22;5840;46.894;15.542;2023-05-10T00:22:36;8.70;99.90
11569;DHT22;5840;46.894;15.542;2023-05-10T00:25:04;8.60;99.90
11569;DHT22;5840;46.894;15.542;2023-05-10T00:27:31;8.60;99.90
11569;DHT22;5840;46.894;15.542;2023-05-10T00:29:58;8.60;99.90
11569;DHT22;5840;46.894;15.542;2023-05-10T00:32:27;8.60;99.90
11569;DHT22;5840;46.894;15.542;2023-05-10T00:34:53;8.60;99.90
11569;DHT22;5840;46.894;15.542;2023-05-10T00:37:20;8.60;99.90
11569;DHT22;5840;46.894;15.542;2023-05-10T00:39:47;8.60;99.90
11569;DHT22;5840;46.894;15.542;2023-05-10T00:42:14;8.60;99.90
11569;DHT22;5840;46.894;15.542;2023-05-10T00:44:41;8.60;99.90
11569;DHT22;5840;46.894;15.542;2023-05-10T00:47:08;8.60;99.90
11569;DHT22;5840;46.894;15.542;2023-05-10T00:49:36;8.60;99.90
11569;DHT22;5840;46.894;15.542;2023-05-10T00:52:03;8.60;99.90
11569;DHT22;5840;46.894;15.542;2023-05-10T00:54:30;8.60;99.90
11569;DHT22;5840;46.894;15.542;2023-05-10T00:56:57;8.60;99.90
11569;DHT22;5840;46.894;15.542;2023-05-10T00:59:24;8.60;99.90
11569;DHT22;5840;46.894;15.542;2023-05-10T01:01:52;8.60;99.90
11569;DHT22;5840;46.894;15.542;2023-05-10T01:04:19;8.60;99.90
11569;DHT22;5840;46.894;15.542;2023-05-10T01:06:52;8.60;99.90
11569;DHT22;5840;46.894;15.542;2023-05-10T01:09:19;8.60;99.90
11569;DHT22;5840;46.894;15.542;2023-05-10T01:11:46;8.50;99.90
11569;DHT22;5840;46.894;15.542;2023-05-10T01:14:13;8.50;99.90
11569;DHT22;5840;46.894;15.542;2023-05-10T01:16:42;8.50;99.90
11569;DHT22;5840;46.894;15.542;2023-05-10T01:19:15;8.50;99.90
11569;DHT22;5840;46.894;15.542;2023-05-10T01:21:49;8.50;99.90
11569;DHT22;5840;46.894;15.542;2023-05-10T01:24:42;8.50;99.90
11569;DHT22;5840;46.894;15.542;2023-05-10T01:27:24;8.50;99.90
11569;DHT22;5840;46.894;15.542;2023-05-10T01:30:08;8.40;99.90
11569;DHT22;5840;46.894;15.542;2023-05-10T01:32:45;8.40;99.90
11569;DHT22;5840;46.894;15.542;2023-05-10T01:35:17;8.40;99.90
11569;DHT22;5840;46.894;15.542;2023-05-10T01:37:49;8.30;99.90
11569;DHT22;5840;46.894;15.542;2023-05-10T01:40:21;8.30;99.90
11569;DHT22;5840;46.894;15.542;2023-05-10T01:42:53;8.30;99.90
11569;DHT22;5840;46.894;15.542;2023-05-10T01:45:29;8.20;99.90
11569;DHT22;5840;46.894;15.542;2023-05-10T01:48:05;8.20;99.90
11569;DHT22;5840;46.894;15.542;2023-05-10T01:50:34;8.20;99.90
11569;DHT22;5840;46.894;15.542;2023-05-10T01:53:02;8.10;99.90
11569;DHT22;5840;46.894;15.542;2023-05-10T01:55:35;8.00;99.90
11569;DHT22;5840;46.894;15.542;2023-05-10T01:58:06;8.00;99.90
11569;DHT22;5840;46.894;15.542;2023-05-10T02:00:35;7.90;99.90
11569;DHT22;5840;46.894;15.542;2023-05-10T02:03:06;7.90;99.90
11569;DHT22;5840;46.894;15.542;2023-05-10T02:05:34;7.80;99.90
11569;DHT22;5840;46.894;15.542;2023-05-10T02:08:05;7.80;99.90
11569;DHT22;5840;46.894;15.542;2023-05-10T02:10:32;7.70;99.90
11569;DHT22;5840;46.894;15.542;2023-05-10T02:13:02;7.70;99.90
11569;DHT22;5840;46.894;15.542;2023-05-10T02:15:30;7.60;99.90
11569;DHT22;5840;46.894;15.542;2023-05-10T02:17:58;7.60;99.90
11569;DHT22;5840;46.894;15.542;2023-05-10T02:20:28;7.60;99.90
11569;DHT22;5840;46.894;15.542;2023-05-10T02:22:57;7.50;99.90
11569;DHT22;5840;46.894;15.542;2023-05-10T02:25:25;7.50;99.90
11569;DHT22;5840;46.894;15.542;2023-05-10T02:27:55;7.40;99.90
11569;DHT22;5840;46.894;15.542;2023-05-10T02:30:23;7.40;99.90
11569;DHT22;5840;46.894;15.542;2023-05-10T02:32:51;7.40;99.90
11569;DHT22;5840;46.894;15.542;2023-05-10T02:35:19;7.40;99.90
11569;DHT22;5840;46.894;15.542;2023-05-10T02:37:47;7.30;99.90
11569;DHT22;5840;46.894;15.542;2023-05-10T02:40:15;7.30;99.90
11569;DHT22;5840;46.894;15.542;2023-05-10T02:42:44;7.30;99.90
11569;DHT22;5840;46.894;15.542;2023-05-10T02:45:17;7.30;99.90
11569;DHT22;5840;46.894;15.542;2023-05-10T02:47:44;7.30;99.90
11569;DHT22;5840;46.894;15.542;2023-05-10T02:50:11;7.40;99.90
11569;DHT22;5840;46.894;15.542;2023-05-10T02:52:40;7.30;99.90
11569;DHT22;5840;46.894;15.542;2023-05-10T02:55:12;7.40;99.90
11569;DHT22;5840;46.894;15.542;2023-05-10T02:57:45;7.40;99.90
11569;DHT22;5840;46.894;15.542;2023-05-10T03:00:14;7.40;99.90
11569;DHT22;5840;46.894;15.542;2023-05-10T03:02:41;7.40;99.90
11569;DHT22;5840;46.894;15.542;2023-05-10T03:05:08;7.40;99.90
11569;DHT22;5840;46.894;15.542;2023-05-10T03:07:35;7.40;99.90
11569;DHT22;5840;46.894;15.542;2023-05-10T03:10:03;7.30;99.90
11569;DHT22;5840;46.894;15.542;2023-05-10T03:12:41;7.30;99.90
11569;DHT22;5840;46.894;15.542;2023-05-10T03:15:18;7.30;99.90
11569;DHT22;5840;46.894;15.542;2023-05-10T03:17:48;7.20;99.90
11569;DHT22;5840;46.894;15.542;2023-05-10T03:20:22;7.20;99.90
11569;DHT22;5840;46.894;15.542;2023-05-10T03:22:55;7.20;99.90
11569;DHT22;5840;46.894;15.542;2023-05-10T03:25:23;7.20;99.90
11569;DHT22;5840;46.894;15.542;2023-05-10T03:27:52;7.20;99.90
11569;DHT22;5840;46.894;15.542;2023-05-10T03:30:19;7.20;99.90
11569;DHT22;5840;46.894;15.542;2023-05-10T03:32:46;7.20;99.90
11569;DHT22;5840;46.894;15.542;2023-05-10T03:35:13;7.20;99.90
11569;DHT22;5840;46.894;15.542;2023-05-10T03:37:40;7.20;99.90
11569;DHT22;5840;46.894;15.542;2023-05-10T03:40:08;7.20;99.90
11569;DHT22;5840;46.894;15.542;2023-05-10T03:42:35;7.20;99.90
11569;DHT22;5840;46.894;15.542;2023-05-10T03:45:04;7.20;99.90
11569;DHT22;5840;46.894;15.542;2023-05-10T03:47:31;7.20;99.90
11569;DHT22;5840;46.894;15.542;2023-05-10T03:49:58;7.20;99.90
11569;DHT22;5840;46.894;15.542;2023-05-10T03:52:25;7.20;99.90
11569;DHT22;5840;46.894;15.542;2023-05-10T03:54:51;7.20;99.90
11569;DHT22;5840;46.894;15.542;2023-05-10T03:57:18;7.20;99.90
11569;DHT22;5840;46.894;15.542;2023-05-10T03:59:45;7.20;99.90
11569;DHT22;5840;46.894;15.542;2023-05-10T04:02:13;7.20;99.90
11569;DHT22;5840;46.894;15.542;2023-05-10T04:04:40;7.20;99.90
11569;DHT22;5840;46.894;15.542;2023-05-10T04:07:07;7.20;99.90
11569;DHT22;5840;46.894;15.542;2023-05-10T04:09:35;7.20;99.90
11569;DHT22;5840;46.894;15.542;2023-05-10T04:12:02;7.20;99.90
11569;DHT22;5840;46.894;15.542;2023-05-10T04:14:29;7.10;99.90
11569;DHT22;5840;46.894;15.542;2023-05-10T04:16:56;7.10;99.90
11569;DHT22;5840;46.894;15.542;2023-05-10T04:19:28;7.10;99.90
11569;DHT22;5840;46.894;15.542;2023-05-10T04:21:55;7.10;99.90
11569;DHT22;5840;46.894;15.542;2023-05-10T04:24:22;7.10;99.90
11569;DHT22;5840;46.894;15.542;2023-05-10T04:26:48;7.10;99.90
11569;DHT22;5840;46.894;15.542;2023-05-10T04:29:15;7.10;99.90
11569;DHT22;5840;46.894;15.542;2023-05-10T04:31:42;7.00;99.90
11569;DHT22;5840;46.894;15.542;2023-05-10T04:34:09;7.00;99.90
11569;DHT22;5840;46.894;15.542;2023-05-10T04:36:37;7.00;99.90
11569;DHT22;5840;46.894;15.542;2023-05-10T04:39:04;7.00;99.90
11569;DHT22;5840;46.894;15.542;2023-05-10T04:41:31;6.90;99.90
11569;DHT22;5840;46.894;15.542;2023-05-10T04:43:58;6.90;99.90
11569;DHT22;5840;46.894;15.542;2023-05-10T04:46:24;6.80;99.90
11569;DHT22;5840;46.894;15.542;2023-05-10T04:48:51;6.80;99.90
11569;DHT22;5840;46.894;15.542;2023-05-10T04:51:18;6.80;99.90
11569;DHT22;5840;46.894;15.542;2023-05-10T04:53:47;6.90;99.90
11569;DHT22;5840;46.894;15.542;2023-05-10T04:56:14;6.90;99.90
11569;DHT22;5840;46.894;15.542;2023-05-10T04:58:41;6.90;99.90
11569;DHT22;5840;46.894;15.542;2023-05-10T05:01:08;6.90;99.90
11569;DHT22;5840;46.894;15.542;2023-05-10T05:03:36;7.00;99.90
11569;DHT22;5840;46.894;15.542;2023-05-10T05:06:03;7.00;99.90
11569;DHT22;5840;46.894;15.542;2023-05-10T05:08:30;7.00;99.90
11569;DHT22;5840;46.894;15.542;2023-05-10T05:10:58;7.00;99.90
11569;DHT22;5840;46.894;15.542;2023-05-10T05:13:25;7.10;99.90
11569;DHT22;5840;46.894;15.542;2023-05-10T05:15:52;7.20;99.90
11569;DHT22;5840;46.894;15.542;2023-05-10T05:18:20;7.30;99.90
11569;DHT22;5840;46.894;15.542;2023-05-10T05:20:46;7.40;99.90
11569;DHT22;5840;46.894;15.542;2023-05-10T05:23:13;7.60;99.90
11569;DHT22;5840;46.894;15.542;2023-05-10T05:25:40;7.80;99.90
11569;DHT22;5840;46.894;15.542;2023-05-10T05:28:08;8.00;99.90
11569;DHT22;5840;46.894;15.542;2023-05-10T05:30:35;8.10;99.90
11569;DHT22;5840;46.894;15.542;2023-05-10T05:33:02;8.20;99.90
11569;DHT22;5840;46.894;15.542;2023-05-10T05:35:29;8.20;99.90
11569;DHT22;5840;46.894;15.542;2023-05-10T05:37:56;8.20;99.90
11569;DHT22;5840;46.894;15.542;2023-05-10T05:40:23;8.30;99.90
11569;DHT22;5840;46.894;15.542;2023-05-10T05:42:49;8.40;99.90
11569;DHT22;5840;46.894;15.542;2023-05-10T05:45:18;8.50;99.90
11569;DHT22;5840;46.894;15.542;2023-05-10T05:47:45;8.60;99.90
11569;DHT22;5840;46.894;15.542;2023-05-10T05:50:12;8.70;99.90
11569;DHT22;5840;46.894;15.542;2023-05-10T05:52:39;9.00;99.90
11569;DHT22;5840;46.894;15.542;2023-05-10T05:55:07;9.20;99.90
11569;DHT22;5840;46.894;15.542;2023-05-10T05:57:34;9.40;99.90
11569;DHT22;5840;46.894;15.542;2023-05-10T06:00:00;9.60;99.90
11569;DHT22;5840;46.894;15.542;2023-05-10T06:02:29;9.70;99.90
11569;DHT22;5840;46.894;15.542;2023-05-10T06:04:56;9.80;99.90
11569;DHT22;5840;46.894;15.542;2023-05-10T06:07:23;9.90;99.90
11569;DHT22;5840;46.894;15.542;2023-05-10T06:09:50;9.90;99.90
11569;DHT22;5840;46.894;15.542;2023-05-10T06:12:17;9.90;99.90
11569;DHT22;5840;46.894;15.542;2023-05-10T06:14:44;9.90;99.90
11569;DHT22;5840;46.894;15.542;2023-05-10T06:17:11;10.00;99.90
11569;DHT22;5840;46.894;15.542;2023-05-10T06:19:39;10.00;99.90
11569;DHT22;5840;46.894;15.542;2023-05-10T06:22:06;10.10;99.90
11569;DHT22;5840;46.894;15.542;2023-05-10T06:24:33;10.10;99.90
11569;DHT22;5840;46.894;15.542;2023-05-10T06:27:00;10.10;99.90
11569;DHT22;5840;46.894;15.542;2023-05-10T06:29:27;10.20;99.90
11569;DHT22;5840;46.894;15.542;2023-05-10T06:31:54;10.20;99.90
11569;DHT22;5840;46.894;15.542;2023-05-10T06:34:21;10.30;99.90
11569;DHT22;5840;46.894;15.542;2023-05-10T06:36:49;10.40;99.90
11569;DHT22;5840;46.894;15.542;2023-05-10T06:39:17;10.60;99.90
11569;DHT22;5840;46.894;15.542;2023-05-10T06:41:44;10.70;99.90
11569;DHT22;5840;46.894;15.542;2023-05-10T06:44:11;10.90;99.90
11569;DHT22;5840;46.894;15.542;2023-05-10T06:46:38;11.10;99.90
11569;DHT22;5840;46.894;15.542;2023-05-10T06:49:05;11.20;99.90
11569;DHT22;5840;46.894;15.542;2023-05-10T06:51:32;11.50;99.90
11569;DHT22;5840;46.894;15.542;2023-05-10T06:54:00;11.60;99.90
11569;DHT22;5840;46.894;15.542;2023-05-10T06:56:27;11.70;99.90
11569;DHT22;5840;46.894;15.542;2023-05-10T06:58:54;11.90;99.90
11569;DHT22;5840;46.894;15.542;2023-05-10T07:01:21;12.00;99.90
11569;DHT22;5840;46.894;15.542;2023-05-10T07:03:48;12.00;99.90
11569;DHT22;5840;46.894;15.542;2023-05-10T07:06:15;12.00;99.90
11569;DHT22;5840;46.894;15.542;2023-05-10T07:08:41;12.00;99.90
11569;DHT22;5840;46.894;15.542;2023-05-10T07:11:10;12.10;99.90
11569;DHT22;5840;46.894;15.542;2023-05-10T07:13:37;12.10;99.90
11569;DHT22;5840;46.894;15.542;2023-05-10T07:16:06;12.20;99.90
11569;DHT22;5840;46.894;15.542;2023-05-10T07:18:33;12.20;99.90
11569;DHT22;5840;46.894;15.542;2023-05-10T07:21:00;12.20;99.90
11569;DHT22;5840;46.894;15.542;2023-05-10T07:23:27;12.20;99.90
11569;DHT22;5840;46.894;15.542;2023-05-10T07:25:55;12.20;99.90
11569;DHT22;5840;46.894;15.542;2023-05-10T07:28:24;12.30;99.90
11569;DHT22;5840;46.894;15.542;2023-05-10T07:30:51;12.30;99.90
11569;DHT22;5840;46.894;15.542;2023-05-10T07:33:18;12.40;99.90
11569;DHT22;5840;46.894;15.542;2023-05-10T07:35:44;12.40;99.90
11569;DHT22;5840;46.894;15.542;2023-05-10T07:38:11;12.50;99.90
11569;DHT22;5840;46.894;15.542;2023-05-10T07:40:39;12.50;99.90
11569;DHT22;5840;46.894;15.542;2023-05-10T07:43:06;12.50;99.90
11569;DHT22;5840;46.894;15.542;2023-05-10T07:45:34;12.60;99.90
11569;DHT22;5840;46.894;15.542;2023-05-10T07:48:01;12.60;99.90
11569;DHT22;5840;46.894;15.542;2023-05-10T07:50:28;12.60;99.90
11569;DHT22;5840;46.894;15.542;2023-05-10T07:52:55;12.70;99.90
11569;DHT22;5840;46.894;15.542;2023-05-10T07:55:22;12.70;99.90
11569;DHT22;5840;46.894;15.542;2023-05-10T07:57:49;12.80;99.90
11569;DHT22;5840;46.894;15.542;2023-05-10T08:00:18;12.80;99.90
11569;DHT22;5840;46.894;15.542;2023-05-10T08:02:47;12.90;99.90
11569;DHT22;5840;46.894;15.542;2023-05-10T08:05:14;13.00;99.90
11569;DHT22;5840;46.894;15.542;2023-05-10T08:07:41;13.10;99.90
11569;DHT22;5840;46.894;15.542;2023-05-10T08:10:09;13.20;99.90
11569;DHT22;5840;46.894;15.542;2023-05-10T08:12:36;13.20;99.90
11569;DHT22;5840;46.894;15.542;2023-05-10T08:15:05;13.20;99.90
11569;DHT22;5840;46.894;15.542;2023-05-10T08:17:32;13.20;99.90
11569;DHT22;5840;46.894;15.542;2023-05-10T08:20:00;13.30;99.90
11569;DHT22;5840;46.894;15.542;2023-05-10T08:22:27;13.30;99.90
11569;DHT22;5840;46.894;15.542;2023-05-10T08:24:54;13.40;99.90
11569;DHT22;5840;46.894;15.542;2023-05-10T08:27:21;13.40;99.90
11569;DHT22;5840;46.894;15.542;2023-05-10T08:29:47;13.50;99.90
11569;DHT22;5840;46.894;15.542;2023-05-10T08:32:14;13.70;99.90
11569;DHT22;5840;46.894;15.542;2023-05-10T08:34:41;13.70;99.90
11569;DHT22;5840;46.894;15.542;2023-05-10T08:37:09;13.80;99.90
11569;DHT22;5840;46.894;15.542;2023-05-10T08:39:38;13.80;99.90
11569;DHT22;5840;46.894;15.542;2023-05-10T08:42:06;13.90;99.90
11569;DHT22;5840;46.894;15.542;2023-05-10T08:44:35;13.90;99.90
11569;DHT22;5840;46.894;15.542;2023-05-10T08:47:04;14.10;99.90
11569;DHT22;5840;46.894;15.542;2023-05-10T08:49:32;14.20;99.90
11569;DHT22;5840;46.894;15.542;2023-05-10T08:52:02;14.30;99.90
11569;DHT22;5840;46.894;15.542;2023-05-10T08:54:31;14.50;99.90
11569;DHT22;5840;46.894;15.542;2023-05-10T08:56:58;14.50;99.90
11569;DHT22;5840;46.894;15.542;2023-05-10T08:59:25;14.70;99.90
11569;DHT22;5840;46.894;15.542;2023-05-10T09:01:54;14.70;99.90
11569;DHT22;5840;46.894;15.542;2023-05-10T09:04:22;14.90;99.90
11569;DHT22;5840;46.894;15.542;2023-05-10T09:06:49;15.20;99.90
11569;DHT22;5840;46.894;15.542;2023-05-10T09:09:17;15.30;99.90
11569;DHT22;5840;46.894;15.542;2023-05-10T09:11:45;15.60;99.90
11569;DHT22;5840;46.894;15.542;2023-05-10T09:14:12;15.60;99.90
11569;DHT22;5840;46.894;15.542;2023-05-10T09:16:40;15.70;99.90
11569;DHT22;5840;46.894;15.542;2023-05-10T09:19:08;15.90;99.90
11569;DHT22;5840;46.894;15.542;2023-05-10T09:21:35;16.10;99.90
11569;DHT22;5840;46.894;15.542;2023-05-10T09:24:04;16.30;99.90
11569;DHT22;5840;46.894;15.542;2023-05-10T09:26:31;16.50;99.90
11569;DHT22;5840;46.894;15.542;2023-05-10T09:29:00;16.70;99.90
11569;DHT22;5840;46.894;15.542;2023-05-10T09:31:44;16.80;99.90
11569;DHT22;5840;46.894;15.542;2023-05-10T09:34:15;17.10;99.90
11569;DHT22;5840;46.894;15.542;2023-05-10T09:36:53;17.20;99.90
11569;DHT22;5840;46.894;15.542;2023-05-10T09:39:20;17.20;99.90
11569;DHT22;5840;46.894;15.542;2023-05-10T09:41:56;17.20;99.90
11569;DHT22;5840;46.894;15.542;2023-05-10T09:44:25;17.30;99.90
11569;DHT22;5840;46.894;15.542;2023-05-10T09:46:52;17.50;99.90
11569;DHT22;5840;46.894;15.542;2023-05-10T09:49:20;17.60;99.90
11569;DHT22;5840;46.894;15.542;2023-05-10T09:51:47;17.80;99.90
11569;DHT22;5840;46.894;15.542;2023-05-10T09:54:15;18.00;99.90
11569;DHT22;5840;46.894;15.542;2023-05-10T09:56:42;18.20;99.90
11569;DHT22;5840;46.894;15.542;2023-05-10T09:59:10;18.30;99.90
11569;DHT22;5840;46.894;15.542;2023-05-10T10:01:39;18.40;99.90
11569;DHT22;5840;46.894;15.542;2023-05-10T10:04:08;18.50;99.90
11569;DHT22;5840;46.894;15.542;2023-05-10T10:06:37;18.50;99.80
11569;DHT22;5840;46.894;15.542;2023-05-10T10:09:04;18.60;98.60
11569;DHT22;5840;46.894;15.542;2023-05-10T10:11:33;18.60;98.60
11569;DHT22;5840;46.894;15.542;2023-05-10T10:14:00;18.80;99.90
11569;DHT22;5840;46.894;15.542;2023-05-10T10:16:29;19.20;99.90
11569;DHT22;5840;46.894;15.542;2023-05-10T10:18:57;19.40;98.70
11569;DHT22;5840;46.894;15.542;2023-05-10T10:21:24;19.40;97.20
11569;DHT22;5840;46.894;15.542;2023-05-10T10:23:51;19.40;98.00
11569;DHT22;5840;46.894;15.542;2023-05-10T10:26:19;19.20;98.40
11569;DHT22;5840;46.894;15.542;2023-05-10T10:28:51;19.20;96.80
11569;DHT22;5840;46.894;15.542;2023-05-10T10:31:27;19.30;97.90
11569;DHT22;5840;46.894;15.542;2023-05-10T10:34:05;19.20;96.30
11569;DHT22;5840;46.894;15.542;2023-05-10T10:36:33;19.20;97.30
11569;DHT22;5840;46.894;15.542;2023-05-10T10:39:09;19.30;96.60
11569;DHT22;5840;46.894;15.542;2023-05-10T10:41:37;19.40;96.50
11569;DHT22;5840;46.894;15.542;2023-05-10T10:44:30;19.50;97.20
11569;DHT22;5840;46.894;15.542;2023-05-10T10:47:01;19.20;93.70
11569;DHT22;5840;46.894;15.542;2023-05-10T10:49:32;18.90;94.20
11569;DHT22;5840;46.894;15.542;2023-05-10T10:52:22;18.60;95.90
11569;DHT22;5840;46.894;15.542;2023-05-10T10:54:52;18.30;96.10
11569;DHT22;5840;46.894;15.542;2023-05-10T10:57:21;18.40;97.50
11569;DHT22;5840;46.894;15.542;2023-05-10T10:59:48;18.70;98.70
11569;DHT22;5840;46.894;15.542;2023-05-10T11:02:42;18.80;95.30
11569;DHT22;5840;46.894;15.542;2023-05-10T11:05:45;19.10;96.90
11569;DHT22;5840;46.894;15.542;2023-05-10T11:08:15;19.10;94.90
11569;DHT22;5840;46.894;15.542;2023-05-10T11:11:01;19.00;94.60
11569;DHT22;5840;46.894;15.542;2023-05-10T11:13:30;18.90;97.00
11569;DHT22;5840;46.894;15.542;2023-05-10T11:15:57;18.90;95.90
11569;DHT22;5840;46.894;15.542;2023-05-10T11:18:26;19.00;96.20
11569;DHT22;5840;46.894;15.542;2023-05-10T11:20:57;18.80;96.40
11569;DHT22;5840;46.894;15.542;2023-05-10T11:23:30;18.70;95.40
11569;DHT22;5840;46.894;15.542;2023-05-10T11:25:58;18.50;94.20
11569;DHT22;5840;46.894;15.542;2023-05-10T11:28:26;18.30;94.70
11569;DHT22;5840;46.894;15.542;2023-05-10T11:30:53;18.10;95.20
11569;DHT22;5840;46.894;15.542;2023-05-10T11:33:20;17.90;95.90
11569;DHT22;5840;46.894;15.542;2023-05-10T11:35:47;17.60;97.80
11569;DHT22;5840;46.894;15.542;2023-05-10T11:38:15;17.50;98.20
11569;DHT22;5840;46.894;15.542;2023-05-10T11:40:42;17.40;97.20
11569;DHT22;5840;46.894;15.542;2023-05-10T11:43:09;17.30;98.70
11569;DHT22;5840;46.894;15.542;2023-05-10T11:45:38;17.30;99.00
11569;DHT22;5840;46.894;15.542;2023-05-10T11:48:06;17.30;98.00
11569;DHT22;5840;46.894;15.542;2023-05-10T11:50:34;17.20;97.90
11569;DHT22;5840;46.894;15.542;2023-05-10T11:53:01;17.00;97.80
11569;DHT22;5840;46.894;15.542;2023-05-10T11:55:29;17.00;98.90
11569;DHT22;5840;46.894;15.542;2023-05-10T11:58:00;17.10;99.10
11569;DHT22;5840;46.894;15.542;2023-05-10T12:00:28;17.20;98.10
11569;DHT22;5840;46.894;15.542;2023-05-10T12:02:55;17.20;97.30
11569;DHT22;5840;46.894;15.542;2023-05-10T12:05:22;17.30;97.60
11569;DHT22;5840;46.894;15.542;2023-05-10T12:07:49;17.40;97.40
11569;DHT22;5840;46.894;15.542;2023-05-10T12:10:17;17.40;97.50
11569;DHT22;5840;46.894;15.542;2023-05-10T12:12:52;17.50;97.80
11569;DHT22;5840;46.894;15.542;2023-05-10T12:15:20;17.50;96.20
11569;DHT22;5840;46.894;15.542;2023-05-10T12:17:47;17.60;97.60
11569;DHT22;5840;46.894;15.542;2023-05-10T12:20:16;17.70;98.20
11569;DHT22;5840;46.894;15.542;2023-05-10T12:22:47;17.80;97.70
11569;DHT22;5840;46.894;15.542;2023-05-10T12:25:14;18.00;97.10
11569;DHT22;5840;46.894;15.542;2023-05-10T12:27:47;18.30;96.60
11569;DHT22;5840;46.894;15.542;2023-05-10T12:30:21;18.40;95.10
11569;DHT22;5840;46.894;15.542;2023-05-10T12:32:48;18.40;94.50
11569;DHT22;5840;46.894;15.542;2023-05-10T12:35:15;18.40;95.20
11569;DHT22;5840;46.894;15.542;2023-05-10T12:37:42;18.30;96.80
11569;DHT22;5840;46.894;15.542;2023-05-10T12:40:10;18.10;95.00
11569;DHT22;5840;46.894;15.542;2023-05-10T12:42:38;18.00;95.10
11569;DHT22;5840;46.894;15.542;2023-05-10T12:45:06;18.00;93.40
11569;DHT22;5840;46.894;15.542;2023-05-10T12:47:37;17.90;94.00
11569;DHT22;5840;46.894;15.542;2023-05-10T12:50:05;17.80;94.50
11569;DHT22;5840;46.894;15.542;2023-05-10T12:52:32;17.80;93.90
11569;DHT22;5840;46.894;15.542;2023-05-10T12:54:59;17.80;94.50
11569;DHT22;5840;46.894;15.542;2023-05-10T12:57:26;17.90;96.30
11569;DHT22;5840;46.894;15.542;2023-05-10T12:59:53;17.90;96.30
11569;DHT22;5840;46.894;15.542;2023-05-10T13:02:20;17.90;94.10
11569;DHT22;5840;46.894;15.542;2023-05-10T13:04:50;18.00;95.50
11569;DHT22;5840;46.894;15.542;2023-05-10T13:07:16;18.00;94.30
11569;DHT22;5840;46.894;15.542;2023-05-10T13:09:43;18.10;94.10
11569;DHT22;5840;46.894;15.542;2023-05-10T13:12:10;18.10;92.10
11569;DHT22;5840;46.894;15.542;2023-05-10T13:14:37;18.20;94.30
11569;DHT22;5840;46.894;15.542;2023-05-10T13:17:06;18.50;92.20
11569;DHT22;5840;46.894;15.542;2023-05-10T13:19:32;18.70;93.20
11569;DHT22;5840;46.894;15.542;2023-05-10T13:22:01;19.00;92.10
11569;DHT22;5840;46.894;15.542;2023-05-10T13:24:28;19.20;90.90
11569;DHT22;5840;46.894;15.542;2023-05-10T13:26:55;19.40;93.10
11569;DHT22;5840;46.894;15.542;2023-05-10T13:29:22;19.30;91.90
11569;DHT22;5840;46.894;15.542;2023-05-10T13:31:48;19.30;90.60
11569;DHT22;5840;46.894;15.542;2023-05-10T13:34:15;19.50;91.40
11569;DHT22;5840;46.894;15.542;2023-05-10T13:36:45;19.10;90.80
11569;DHT22;5840;46.894;15.542;2023-05-10T13:39:14;18.90;91.90
11569;DHT22;5840;46.894;15.542;2023-05-10T13:41:41;18.60;94.10
11569;DHT22;5840;46.894;15.542;2023-05-10T13:44:08;18.60;93.70
11569;DHT22;5840;46.894;15.542;2023-05-10T13:46:35;18.40;93.40
11569;DHT22;5840;46.894;15.542;2023-05-10T13:49:01;18.30;94.70
11569;DHT22;5840;46.894;15.542;2023-05-10T13:51:28;18.20;93.30
11569;DHT22;5840;46.894;15.542;2023-05-10T13:53:57;18.20;94.00
11569;DHT22;5840;46.894;15.542;2023-05-10T13:56:25;18.20;94.10
11569;DHT22;5840;46.894;15.542;2023-05-10T13:58:52;18.20;93.10
11569;DHT22;5840;46.894;15.542;2023-05-10T14:01:19;18.20;94.00
11569;DHT22;5840;46.894;15.542;2023-05-10T14:03:45;18.20;94.70
11569;DHT22;5840;46.894;15.542;2023-05-10T14:06:13;18.10;94.90
11569;DHT22;5840;46.894;15.542;2023-05-10T14:08:40;18.00;94.90
11569;DHT22;5840;46.894;15.542;2023-05-10T14:11:07;18.00;94.00
11569;DHT22;5840;46.894;15.542;2023-05-10T14:13:35;17.90;92.80
11569;DHT22;5840;46.894;15.542;2023-05-10T14:16:02;17.90;93.40
11569;DHT22;5840;46.894;15.542;2023-05-10T14:18:29;17.90;94.10
11569;DHT22;5840;46.894;15.542;2023-05-10T14:20:56;17.80;93.40
11569;DHT22;5840;46.894;15.542;2023-05-10T14:23:23;17.80;94.20
11569;DHT22;5840;46.894;15.542;2023-05-10T14:25:51;17.80;94.60
11569;DHT22;5840;46.894;15.542;2023-05-10T14:28:18;17.80;94.50
11569;DHT22;5840;46.894;15.542;2023-05-10T14:30:47;17.90;93.70
11569;DHT22;5840;46.894;15.542;2023-05-10T14:33:14;17.90;95.00
11569;DHT22;5840;46.894;15.542;2023-05-10T14:35:41;18.00;95.10
11569;DHT22;5840;46.894;15.542;2023-05-10T14:38:08;18.10;96.40
11569;DHT22;5840;46.894;15.542;2023-05-10T14:40:36;18.10;92.50
11569;DHT22;5840;46.894;15.542;2023-05-10T14:43:03;18.30;93.90
11569;DHT22;5840;46.894;15.542;2023-05-10T14:45:30;18.30;91.20
11569;DHT22;5840;46.894;15.542;2023-05-10T14:47:58;18.30;91.30
11569;DHT22;5840;46.894;15.542;2023-05-10T14:50:25;18.40;94.60
11569;DHT22;5840;46.894;15.542;2023-05-10T14:52:53;18.60;94.80
11569;DHT22;5840;46.894;15.542;2023-05-10T14:55:20;18.70;93.30
11569;DHT22;5840;46.894;15.542;2023-05-10T14:57:46;18.80;94.00
11569;DHT22;5840;46.894;15.542;2023-05-10T15:00:16;18.80;93.20
11569;DHT22;5840;46.894;15.542;2023-05-10T15:02:44;18.90;93.40
11569;DHT22;5840;46.894;15.542;2023-05-10T15:05:13;19.00;94.30
11569;DHT22;5840;46.894;15.542;2023-05-10T15:07:40;19.10;93.60
11569;DHT22;5840;46.894;15.542;2023-05-10T15:10:09;18.80;91.40
11569;DHT22;5840;46.894;15.542;2023-05-10T15:12:36;18.60;91.50
11569;DHT22;5840;46.894;15.542;2023-05-10T15:15:03;18.50;92.70
11569;DHT22;5840;46.894;15.542;2023-05-10T15:17:30;18.30;91.20
11569;DHT22;5840;46.894;15.542;2023-05-10T15:19:57;18.20;92.90
11569;DHT22;5840;46.894;15.542;2023-05-10T15:22:25;18.00;92.50
11569;DHT22;5840;46.894;15.542;2023-05-10T15:24:53;17.90;92.70
11569;DHT22;5840;46.894;15.542;2023-05-10T15:27:20;17.80;92.90
11569;DHT22;5840;46.894;15.542;2023-05-10T15:29:47;17.70;92.90
11569;DHT22;5840;46.894;15.542;2023-05-10T15:32:14;17.50;93.40
11569;DHT22;5840;46.894;15.542;2023-05-10T15:34:41;17.50;94.50
11569;DHT22;5840;46.894;15.542;2023-05-10T15:37:08;17.40;93.80
11569;DHT22;5840;46.894;15.542;2023-05-10T15:39:37;17.30;94.20
11569;DHT22;5840;46.894;15.542;2023-05-10T15:42:04;17.20;94.40
11569;DHT22;5840;46.894;15.542;2023-05-10T15:44:31;17.10;94.60